Time;durP1;ratioP1;P1;durP2;ratioP2;P2;SDS_P1;SDS_P2;PMS_P1;PMS_P2;Temp;Humidity;BMP_temperature;BMP_pressure;BME280_temperature;BME280_humidity;BME280_pressure;Samples;Min_cycle;Max_cycle;Signal;HPM_P1;HPM_P2
2023/01/27 00:00:23;;;;;;;12.43;9.23;;;;;;;0.61;79.67;93787.97;4146751;28;20049;-63
2023/01/27 00:02:24;;;;;;;14.85;9.07;;;;;;;0.63;79.68;93780.91;4144576;28;20108;-59
2023/01/27 00:04:26;;;;;;;13.55;9.70;;;;;;;0.70;79.45;93792.38;4147467;28;20073;-58
2023/01/27 00:06:28;;;;;;;12.07;8.75;;;;;;;0.61;78.60;93787.97;4142774;28;20161;-60
2023/01/27 00:08:29;;;;;;;12.45;9.18;;;;;;;0.65;79.17;93793.69;4146191;28;20833;-61
2023/01/27 00:10:31;;;;;;;13.00;8.50;;;;;;;0.76;79.42;93786.72;4146538;28;20050;-61
2023/01/27 00:14:52;;;;;;;13.77;8.65;;;;;;;1.02;78.46;93786.41;4143703;28;20412;-60
2023/01/27 00:16:54;;;;;;;11.65;8.50;;;;;;;1.08;78.30;93785.09;4131154;28;20097;-61
2023/01/27 00:18:56;;;;;;;11.95;8.55;;;;;;;1.14;77.77;93780.25;4136647;28;20076;-61
2023/01/27 00:25:41;;;;;;;13.95;9.10;;;;;;;1.21;77.00;93757.34;4146730;28;20200;-62
2023/01/27 00:27:43;;;;;;;12.23;9.55;;;;;;;1.25;76.95;93755.31;4145838;28;20046;-62
2023/01/27 00:29:46;;;;;;;14.02;9.57;;;;;;;1.27;77.13;93751.69;4143623;28;20053;-62
2023/01/27 00:34:08;;;;;;;14.90;9.60;;;;;;;1.31;76.00;93744.50;4146855;28;20088;-61
2023/01/27 00:36:10;;;;;;;15.63;9.13;;;;;;;1.30;76.40;93769.50;4146579;28;20136;-60
2023/01/27 00:38:12;;;;;;;12.73;8.63;;;;;;;1.35;76.42;93769.91;4146073;28;20061;-60
2023/01/27 00:40:15;;;;;;;13.65;9.07;;;;;;;1.34;76.31;93765.72;4132792;28;20073;-60
2023/01/27 00:42:17;;;;;;;11.60;7.78;;;;;;;1.35;75.98;93749.28;4145898;28;20069;-62
2023/01/27 00:44:18;;;;;;;10.38;7.43;;;;;;;1.38;76.19;93748.22;4146321;28;20080;-61
2023/01/27 00:46:22;;;;;;;10.05;7.43;;;;;;;1.39;76.21;93749.84;4135621;28;20050;-61
2023/01/27 00:48:23;;;;;;;11.10;7.63;;;;;;;1.38;76.20;93763.72;4130463;28;20046;-62
2023/01/27 00:50:25;;;;;;;11.60;7.80;;;;;;;1.36;75.90;93771.56;4135954;28;20129;-61
2023/01/27 00:52:27;;;;;;;9.85;7.38;;;;;;;1.39;75.29;93770.50;4137665;28;20046;-63
2023/01/27 00:54:28;;;;;;;11.32;8.10;;;;;;;1.32;75.85;93757.28;4129630;28;20412;-58
2023/01/27 00:56:30;;;;;;;12.50;7.60;;;;;;;1.32;75.69;93762.44;4130151;28;20490;-62
2023/01/27 00:58:32;;;;;;;10.50;7.75;;;;;;;1.28;76.48;93765.41;4129540;28;20050;-61
2023/01/27 01:00:33;;;;;;;10.50;6.93;;;;;;;1.28;75.82;93761.06;4139411;28;20054;-61
2023/01/27 01:02:35;;;;;;;11.98;8.30;;;;;;;1.11;76.22;93762.44;4136914;28;20045;-60
2023/01/27 01:04:37;;;;;;;11.73;7.78;;;;;;;1.02;75.93;93758.84;4139794;28;20049;-59
2023/01/27 01:06:38;;;;;;;13.77;8.52;;;;;;;1.00;76.66;93752.19;4140078;28;20115;-60
2023/01/27 01:08:41;;;;;;;11.50;8.32;;;;;;;1.08;76.82;93757.53;4145047;28;20066;-62
2023/01/27 01:10:43;;;;;;;11.60;8.40;;;;;;;1.20;76.78;93758.28;4146131;28;20101;-62
2023/01/27 01:12:44;;;;;;;9.80;7.55;;;;;;;1.32;76.45;93748.72;4143306;28;20057;-61
2023/01/27 01:14:46;;;;;;;11.98;8.23;;;;;;;1.39;76.33;93761.00;4132728;28;20048;-61
2023/01/27 01:16:48;;;;;;;11.80;8.30;;;;;;;1.47;75.46;93764.72;4145673;28;20472;-61
2023/01/27 01:18:49;;;;;;;11.80;8.10;;;;;;;1.49;75.38;93763.63;4145178;28;20050;-61
2023/01/27 01:20:51;;;;;;;12.10;9.13;;;;;;;1.56;75.54;93761.38;4143532;28;20054;-62
2023/01/27 01:22:53;;;;;;;17.17;10.68;;;;;;;1.63;75.37;93765.91;4144180;28;20077;-62
2023/01/27 01:24:54;;;;;;;14.43;10.23;;;;;;;1.66;74.76;93756.22;4145059;28;20064;-62
2023/01/27 01:26:56;;;;;;;16.08;10.77;;;;;;;1.67;75.08;93755.31;4145316;28;20587;-61
2023/01/27 01:28:57;;;;;;;18.70;12.43;;;;;;;1.58;74.93;93755.13;4145691;28;20046;-61
2023/01/27 01:31:07;;;;;;;21.25;13.27;;;;;;;1.53;75.15;93754.69;4146169;28;20401;-62
2023/01/27 01:33:09;;;;;;;19.00;12.63;;;;;;;1.55;75.04;93763.13;4145766;28;20045;-62
2023/01/27 01:35:11;;;;;;;18.65;11.88;;;;;;;1.53;75.01;93762.44;4145392;28;20547;-62
2023/01/27 01:37:13;;;;;;;17.17;11.43;;;;;;;1.51;74.64;93768.69;4149525;28;20156;-63
2023/01/27 01:39:14;;;;;;;19.80;11.73;;;;;;;1.53;74.60;93771.97;4148003;28;20115;-60
2023/01/27 01:41:18;;;;;;;16.92;11.02;;;;;;;1.50;74.90;93769.63;4148259;28;20046;-62
2023/01/27 01:43:21;;;;;;;;;;;;;;;1.52;74.90;93778.06;4149497;28;20041;-59
2023/01/27 01:45:35;;;;;;;16.77;11.90;;;;;;;1.49;75.27;93781.72;4148618;28;19980;-61
2023/01/27 01:47:37;;;;;;;16.38;11.48;;;;;;;1.51;74.97;93772.06;4149364;28;20172;-59
2023/01/27 01:49:39;;;;;;;15.23;10.85;;;;;;;1.54;74.52;93771.81;4149267;28;20054;-61
2023/01/27 01:51:53;;;;;;;13.65;10.05;;;;;;;1.52;74.68;93772.88;4129784;28;20057;-61
2023/01/27 01:54:08;;;;;;;12.75;9.88;;;;;;;1.50;74.47;93761.88;4140789;28;20473;-61
2023/01/27 01:56:14;;;;;;;14.05;9.85;;;;;;;1.51;74.94;93759.16;4128455;28;20050;-62
2023/01/27 01:58:16;;;;;;;14.88;10.57;;;;;;;1.51;74.87;93759.16;4135690;28;20100;-60
2023/01/27 02:00:18;;;;;;;14.75;10.63;;;;;;;1.52;74.87;93753.03;4139284;28;20053;-61
2023/01/27 02:02:21;;;;;;;13.65;9.35;;;;;;;1.53;74.76;93756.47;4144282;28;20046;-60
2023/01/27 02:04:27;;;;;;;13.52;9.52;;;;;;;1.57;75.09;93735.44;4148794;28;20453;-60
2023/01/27 02:06:33;;;;;;;13.95;9.52;;;;;;;1.55;75.06;93733.91;4127207;28;20521;-60
2023/01/27 02:08:41;;;;;;;14.20;10.02;;;;;;;1.36;74.74;93732.88;4130495;28;20054;-60
2023/01/27 02:10:43;;;;;;;11.30;8.10;;;;;;;0.90;75.93;93731.47;4149001;28;20062;-64
2023/01/27 02:12:45;;;;;;;13.45;8.98;;;;;;;0.47;77.47;93734.91;4129857;28;20050;-64
2023/01/27 02:14:47;;;;;;;14.80;10.20;;;;;;;0.39;78.86;93727.81;4148619;28;20125;-63
2023/01/27 02:16:49;;;;;;;16.58;10.77;;;;;;;0.04;79.70;93722.84;4131393;28;20093;-62
2023/01/27 02:18:50;;;;;;;13.35;10.35;;;;;;;-0.30;80.94;93719.47;4131261;28;20506;-63
2023/01/27 02:20:53;;;;;;;15.75;11.32;;;;;;;-0.60;82.71;93713.19;4148172;28;20475;-64
2023/01/27 02:23:21;;;;;;;17.50;10.98;;;;;;;-0.39;83.51;93709.91;4131185;28;20046;-64
2023/01/27 02:25:34;;;;;;;15.88;11.68;;;;;;;-0.53;82.73;93709.19;4148419;28;20073;-63
2023/01/27 02:27:35;;;;;;;17.60;12.23;;;;;;;-0.56;82.83;93701.72;4147846;28;20054;-64
2023/01/27 02:29:37;;;;;;;18.05;12.38;;;;;;;-0.36;83.42;93700.19;4129857;28;20050;-62
2023/01/27 02:31:39;;;;;;;17.63;12.30;;;;;;;-0.13;82.85;93706.16;4148557;28;20050;-63
2023/01/27 02:33:41;;;;;;;16.17;11.65;;;;;;;0.13;82.17;93701.53;4148512;28;20050;-62
2023/01/27 02:36:02;;;;;;;15.05;11.68;;;;;;;0.35;81.42;93708.38;4147900;28;20077;-64
2023/01/27 02:38:05;;;;;;;16.15;11.93;;;;;;;0.52;80.33;93701.88;4148079;28;20081;-63
2023/01/27 02:40:07;;;;;;;15.05;10.95;;;;;;;0.68;80.43;93695.50;4130558;28;20501;-63
2023/01/27 02:42:11;;;;;;;15.43;10.68;;;;;;;0.84;79.33;93693.31;4147128;28;20077;-64
2023/01/27 02:44:13;;;;;;;17.88;11.43;;;;;;;0.93;78.40;93691.75;4130965;28;20046;-62
2023/01/27 02:46:15;;;;;;;13.80;10.25;;;;;;;1.00;77.54;93698.84;4148236;28;20133;-62
2023/01/27 02:48:16;;;;;;;16.50;9.65;;;;;;;1.01;77.63;93705.63;4147376;28;20203;-65
2023/01/27 02:50:18;;;;;;;14.40;9.80;;;;;;;1.04;76.80;93704.56;4147938;28;20058;-64
2023/01/27 02:52:21;;;;;;;12.73;9.25;;;;;;;1.13;76.75;93708.97;4148125;28;20346;-64
2023/01/27 02:54:24;;;;;;;12.90;8.70;;;;;;;1.20;76.39;93711.84;4147841;28;20081;-64
2023/01/27 02:56:26;;;;;;;14.00;9.30;;;;;;;1.17;75.84;93717.28;4130533;28;20054;-63
2023/01/27 02:58:28;;;;;;;15.05;10.55;;;;;;;1.12;76.73;93715.06;4147220;28;20656;-63
2023/01/27 03:00:29;;;;;;;13.65;9.57;;;;;;;1.17;76.50;93710.34;4148282;28;20054;-64
2023/01/27 03:02:31;;;;;;;14.63;9.10;;;;;;;1.18;76.31;93709.41;4148016;28;20085;-65
2023/01/27 03:04:37;;;;;;;14.68;10.02;;;;;;;1.23;76.23;93696.13;4147552;28;20053;-63
2023/01/27 03:06:39;;;;;;;15.27;9.68;;;;;;;1.25;76.70;93694.25;4137278;28;20473;-62
2023/01/27 03:08:41;;;;;;;13.30;9.27;;;;;;;1.33;76.52;93696.97;4147312;28;20054;-63
2023/01/27 03:10:43;;;;;;;12.93;9.15;;;;;;;1.41;75.69;93688.59;4148266;28;20108;-62
2023/01/27 03:12:44;;;;;;;14.02;9.77;;;;;;;1.40;75.52;93687.00;4132287;28;20050;-62
2023/01/27 03:19:28;;;;;;;13.07;9.32;;;;;;;1.46;75.18;93678.72;4120418;28;20050;-63
2023/01/27 03:21:29;;;;;;;11.73;9.30;;;;;;;1.18;75.52;93675.03;4147928;28;20116;-63
2023/01/27 03:23:33;;;;;;;13.43;9.65;;;;;;;1.10;76.21;93669.69;4146588;28;20053;-64
2023/01/27 03:25:35;;;;;;;12.65;9.45;;;;;;;1.14;76.68;93668.50;4136372;28;20642;-63
2023/01/27 03:27:36;;;;;;;11.63;9.15;;;;;;;1.04;76.54;93672.81;4132189;28;20081;-64
2023/01/27 03:29:56;;;;;;;11.75;9.10;;;;;;;1.09;76.83;93673.22;4135948;28;20053;-65
2023/01/27 03:31:58;;;;;;;16.08;10.68;;;;;;;1.15;76.74;93667.56;4147581;28;20056;-64
2023/01/27 03:34:00;;;;;;;14.73;9.68;;;;;;;1.23;76.51;93667.75;4134656;28;20052;-63
2023/01/27 03:47:44;;;;;;;14.50;9.82;;;;;;;1.35;75.90;93634.94;4140677;28;20409;-62
2023/01/27 03:49:45;;;;;;;17.35;9.82;;;;;;;1.31;76.20;93636.97;4141359;28;20440;-64
2023/01/27 03:51:47;;;;;;;13.18;10.00;;;;;;;1.36;75.86;93634.81;4146424;28;20108;-64
2023/01/27 03:53:49;;;;;;;15.45;10.73;;;;;;;1.30;75.84;93637.91;4146815;28;20052;-64
2023/01/27 03:55:51;;;;;;;19.55;12.65;;;;;;;1.33;76.08;93634.25;4146862;28;20089;-63
2023/01/27 03:57:52;;;;;;;16.95;11.43;;;;;;;1.34;76.27;93638.47;4146361;28;20050;-65
2023/01/27 03:59:54;;;;;;;13.52;9.85;;;;;;;0.74;77.54;93638.28;4145587;28;20046;-65
2023/01/27 04:08:55;;;;;;;14.90;11.27;;;;;;;0.05;83.05;93669.59;4137767;28;20415;-64
2023/01/27 04:13:24;;;;;;;14.77;9.52;;;;;;;0.57;81.74;93683.47;4136737;28;20415;-63
2023/01/27 04:15:26;;;;;;;12.38;8.10;;;;;;;0.75;81.42;93697.47;4147173;28;20042;-63
2023/01/27 04:17:29;;;;;;;13.48;8.23;;;;;;;0.89;80.40;93703.25;4134603;28;20069;-64
2023/01/27 04:19:31;;;;;;;11.80;8.70;;;;;;;0.95;79.66;93703.56;4131586;28;20069;-64
2023/01/27 04:21:33;;;;;;;12.65;9.02;;;;;;;1.05;78.82;93701.03;4137769;28;20061;-62
2023/01/27 04:23:35;;;;;;;12.32;8.52;;;;;;;1.16;78.68;93700.97;4136245;28;20100;-61
2023/01/27 04:25:36;;;;;;;9.85;7.63;;;;;;;1.25;78.45;93699.41;4131769;28;20456;-63
2023/01/27 04:27:38;;;;;;;12.05;7.70;;;;;;;1.38;78.11;93704.38;4134132;28;20054;-64
2023/01/27 04:29:41;;;;;;;12.60;7.65;;;;;;;1.40;77.55;93711.03;4142739;28;20054;-66
2023/01/27 04:31:43;;;;;;;11.43;8.13;;;;;;;1.45;76.98;93715.81;4146831;28;20049;-66
2023/01/27 04:33:44;;;;;;;11.32;8.52;;;;;;;1.46;77.06;93729.50;4135793;28;20050;-65
2023/01/27 04:35:46;;;;;;;11.57;8.40;;;;;;;1.49;76.87;93727.50;4143594;28;20188;-63
2023/01/27 04:37:48;;;;;;;11.15;8.15;;;;;;;1.50;76.79;93723.97;4134721;28;20046;-63
2023/01/27 04:39:49;;;;;;;12.05;8.25;;;;;;;1.59;76.82;93717.22;4146049;28;20096;-63
2023/01/27 04:41:51;;;;;;;10.70;7.93;;;;;;;1.61;76.30;93718.75;4133887;28;20064;-65
2023/01/27 04:43:53;;;;;;;11.18;8.20;;;;;;;1.62;75.91;93722.94;4127142;28;20054;-61
2023/01/27 04:45:54;;;;;;;10.38;7.00;;;;;;;1.64;76.08;93731.38;4146652;28;20054;-62
2023/01/27 04:47:56;;;;;;;10.07;6.47;;;;;;;1.64;75.71;93725.41;4146473;28;20062;-62
2023/01/27 04:49:58;;;;;;;9.63;6.90;;;;;;;1.64;75.88;93713.31;4146338;28;20507;-61
2023/01/27 04:51:59;;;;;;;10.32;6.72;;;;;;;1.64;75.53;93709.91;4145639;28;20057;-62
2023/01/27 04:54:02;;;;;;;11.85;6.88;;;;;;;1.56;75.67;93723.44;4145916;28;20046;-61
2023/01/27 04:56:11;;;;;;;10.40;6.87;;;;;;;1.57;76.24;93743.19;4146648;28;20054;-64
2023/01/27 04:58:13;;;;;;;12.32;6.85;;;;;;;1.64;76.29;93749.44;4128424;28;20280;-60
2023/01/27 05:00:15;;;;;;;9.70;6.45;;;;;;;1.60;75.94;93732.59;4145630;28;20084;-64
2023/01/27 05:02:17;;;;;;;13.50;6.47;;;;;;;1.31;76.50;93729.03;4146250;28;20107;-60
2023/01/27 05:04:19;;;;;;;10.35;6.43;;;;;;;1.18;76.61;93734.38;4142886;28;20038;-62
2023/01/27 05:06:22;;;;;;;9.95;6.82;;;;;;;1.14;77.78;93739.00;4140178;28;20050;-60
2023/01/27 05:08:23;;;;;;;9.27;6.28;;;;;;;1.18;77.82;93736.94;4140069;28;20049;-62
2023/01/27 05:10:25;;;;;;;7.88;4.90;;;;;;;0.82;77.59;93745.00;4145817;28;20105;-61
2023/01/27 05:12:26;;;;;;;8.13;6.00;;;;;;;0.53;78.87;93742.16;4141155;28;20096;-60
2023/01/27 05:14:28;;;;;;;9.27;6.22;;;;;;;0.58;79.16;93740.06;4139382;28;20046;-61
2023/01/27 05:16:30;;;;;;;13.23;7.78;;;;;;;0.60;79.22;93725.28;4141025;28;20125;-63
2023/01/27 05:18:32;;;;;;;12.73;7.63;;;;;;;0.68;79.12;93731.56;4141200;28;20431;-61
2023/01/27 05:20:33;;;;;;;16.23;10.65;;;;;;;0.48;79.62;93734.00;4142132;28;20058;-63
2023/01/27 05:22:35;;;;;;;20.02;11.93;;;;;;;0.39;80.41;93737.31;4140529;28;20088;-63
2023/01/27 05:24:37;;;;;;;17.15;10.82;;;;;;;0.42;80.07;93731.09;4140927;28;20634;-61
2023/01/27 05:26:39;;;;;;;14.85;10.45;;;;;;;0.51;80.76;93727.75;4144559;28;20459;-62
2023/01/27 05:28:43;;;;;;;15.38;10.57;;;;;;;0.49;80.29;93738.19;4137281;28;20061;-63
2023/01/27 05:30:45;;;;;;;20.40;12.43;;;;;;;0.37;80.17;93719.38;4146447;28;20369;-62
2023/01/27 05:32:46;;;;;;;18.77;11.50;;;;;;;0.50;80.56;93715.84;4132008;28;20058;-63
2023/01/27 05:34:48;;;;;;;18.55;12.18;;;;;;;0.64;80.53;93714.72;4145697;28;20657;-62
2023/01/27 05:36:50;;;;;;;17.92;12.88;;;;;;;0.47;79.07;93710.91;4144943;28;20050;-62
2023/01/27 05:38:53;;;;;;;24.45;12.70;;;;;;;0.30;80.44;93709.66;4145277;28;20104;-62
2023/01/27 05:40:56;;;;;;;17.58;12.57;;;;;;;0.47;81.01;93705.75;4145511;28;20050;-63
2023/01/27 05:42:58;;;;;;;20.27;13.18;;;;;;;0.63;80.77;93703.59;4144728;28;20050;-62
2023/01/27 05:44:59;;;;;;;19.77;12.10;;;;;;;0.74;79.88;93703.53;4145205;28;20084;-61
2023/01/27 05:47:01;;;;;;;18.60;12.00;;;;;;;0.82;79.60;93698.59;4144776;28;20136;-62
2023/01/27 05:49:04;;;;;;;17.23;11.50;;;;;;;0.63;78.74;93706.16;4145643;28;20487;-60
2023/01/27 05:51:06;;;;;;;17.15;11.80;;;;;;;0.73;79.23;93706.22;4139097;28;20046;-61
2023/01/27 05:53:08;;;;;;;16.30;11.63;;;;;;;0.85;79.01;93704.44;4140732;28;20081;-62
2023/01/27 05:55:10;;;;;;;15.98;10.75;;;;;;;0.93;78.84;93704.63;4131534;28;20050;-62
2023/01/27 05:57:12;;;;;;;15.15;10.98;;;;;;;1.01;78.79;93708.22;4129414;28;20504;-61
2023/01/27 05:59:14;;;;;;;17.25;10.85;;;;;;;1.14;78.71;93709.78;4137698;28;20415;-62
2023/01/27 06:01:16;;;;;;;12.82;8.73;;;;;;;1.19;77.72;93715.38;4146324;28;20124;-62
2023/01/27 06:03:18;;;;;;;13.48;9.90;;;;;;;1.28;77.17;93731.88;4137278;28;20049;-61
2023/01/27 06:05:20;;;;;;;12.90;8.43;;;;;;;1.34;77.20;93726.22;4141763;28;20381;-60
2023/01/27 06:07:21;;;;;;;12.95;8.70;;;;;;;1.40;77.27;93713.59;4139011;28;20423;-62
2023/01/27 06:09:23;;;;;;;13.43;8.75;;;;;;;1.28;76.44;93704.28;4129349;28;20046;-60
2023/01/27 06:11:25;;;;;;;12.30;7.63;;;;;;;1.02;76.93;93698.72;4145210;28;20041;-61
2023/01/27 06:13:27;;;;;;;13.65;7.38;;;;;;;0.83;77.67;93709.72;4145173;28;20096;-61
2023/01/27 06:15:29;;;;;;;10.77;8.00;;;;;;;0.85;77.83;93720.72;4145493;28;20124;-62
2023/01/27 06:17:30;;;;;;;10.80;8.02;;;;;;;0.94;78.68;93716.56;4145621;28;20057;-63
2023/01/27 06:19:32;;;;;;;14.70;8.55;;;;;;;1.07;77.94;93719.78;4145690;28;20064;-64
2023/01/27 06:21:33;;;;;;;12.50;8.45;;;;;;;1.15;77.86;93712.22;4145155;28;20062;-63
2023/01/27 06:23:35;;;;;;;12.32;7.50;;;;;;;0.84;77.16;93720.84;4147391;28;20514;-62
2023/01/27 06:25:43;;;;;;;12.10;8.13;;;;;;;0.72;77.76;93722.66;4147848;28;20434;-64
2023/01/27 06:27:44;;;;;;;13.98;8.38;;;;;;;0.77;78.39;93721.31;4147201;28;20103;-62
2023/01/27 06:29:46;;;;;;;11.80;7.95;;;;;;;0.44;78.55;93727.44;4148106;28;20041;-61
2023/01/27 06:31:48;;;;;;;15.68;8.48;;;;;;;0.39;79.65;93737.31;4148500;28;20057;-63
2023/01/27 06:33:50;;;;;;;11.73;8.30;;;;;;;0.45;79.49;93738.56;4138431;28;20078;-63
2023/01/27 06:36:00;;;;;;;15.90;8.10;;;;;;;0.15;80.06;93733.13;4132700;28;20061;-63
2023/01/27 06:38:03;;;;;;;10.88;7.38;;;;;;;-0.07;80.55;93728.81;4120905;28;20432;-63
2023/01/27 06:40:05;;;;;;;16.17;8.65;;;;;;;-0.18;81.18;93721.13;4148339;28;20440;-63
2023/01/27 06:42:08;;;;;;;15.85;9.43;;;;;;;-0.12;81.94;93725.78;4147267;28;20050;-64
2023/01/27 06:44:10;;;;;;;13.57;8.85;;;;;;;0.08;81.99;93736.31;4135470;28;20080;-64
2023/01/27 06:46:12;;;;;;;12.60;9.60;;;;;;;0.16;80.74;93734.75;4148851;28;20057;-62
2023/01/27 06:48:13;;;;;;;15.55;9.43;;;;;;;0.31;80.65;93732.75;4148671;28;20045;-60
2023/01/27 06:50:15;;;;;;;13.35;10.55;;;;;;;0.46;80.10;93732.47;4148442;28;20053;-61
2023/01/27 06:52:17;;;;;;;14.38;9.60;;;;;;;0.67;79.88;93735.06;4148250;28;20385;-61
2023/01/27 06:54:18;;;;;;;12.40;9.05;;;;;;;0.85;79.25;93743.91;4148191;28;20054;-62
2023/01/27 06:56:20;;;;;;;14.57;8.20;;;;;;;1.00;78.22;93741.88;4147675;28;20100;-60
2023/01/27 06:58:22;;;;;;;12.50;8.63;;;;;;;1.08;77.47;93734.31;4147700;28;20050;-64
2023/01/27 07:00:24;;;;;;;15.38;10.40;;;;;;;1.05;76.38;93739.72;4143598;28;20468;-62
2023/01/27 07:02:25;;;;;;;19.48;9.88;;;;;;;1.10;76.60;93736.75;4139604;28;20042;-64
2023/01/27 07:04:28;;;;;;;13.10;8.60;;;;;;;1.13;76.65;93737.34;4142797;28;20049;-63
2023/01/27 07:06:30;;;;;;;12.80;8.70;;;;;;;1.25;76.80;93747.59;4137557;28;20050;-61
2023/01/27 07:08:31;;;;;;;16.48;9.30;;;;;;;1.35;76.81;93746.69;4137718;28;20113;-61
2023/01/27 07:10:33;;;;;;;16.92;9.80;;;;;;;1.37;75.57;93746.59;4147269;28;20104;-61
2023/01/27 07:12:36;;;;;;;13.95;9.43;;;;;;;1.42;76.35;93747.03;4147305;28;20385;-62
2023/01/27 07:14:38;;;;;;;12.55;8.88;;;;;;;1.48;75.80;93754.25;4131654;28;20069;-61
2023/01/27 07:16:40;;;;;;;16.00;9.20;;;;;;;1.57;75.20;93744.91;4138551;28;20050;-63
2023/01/27 07:18:41;;;;;;;12.43;8.02;;;;;;;1.66;74.99;93745.91;4147915;28;20053;-62
2023/01/27 07:20:43;;;;;;;13.32;8.25;;;;;;;1.68;74.25;93744.84;4134684;28;20054;-63
2023/01/27 07:22:45;;;;;;;14.95;9.82;;;;;;;1.68;73.94;93749.19;4131581;28;20061;-60
2023/01/27 07:24:46;;;;;;;15.32;8.25;;;;;;;1.77;74.32;93738.09;4138817;28;20050;-64
2023/01/27 07:26:48;;;;;;;14.88;8.48;;;;;;;1.80;73.95;93743.81;4147256;28;20103;-63
2023/01/27 07:28:49;;;;;;;14.95;8.15;;;;;;;1.84;73.87;93732.28;4147190;28;20128;-64
2023/01/27 07:30:51;;;;;;;11.57;8.15;;;;;;;1.81;72.98;93735.13;4146396;28;20048;-63
2023/01/27 07:32:54;;;;;;;10.00;6.60;;;;;;;1.81;72.83;93734.31;4135296;28;20085;-62
2023/01/27 07:34:55;;;;;;;11.25;5.60;;;;;;;1.76;72.47;93744.19;4134953;28;20126;-62
2023/01/27 07:36:57;;;;;;;8.52;5.97;;;;;;;1.75;72.94;93734.84;4145663;28;20134;-62
2023/01/27 07:38:59;;;;;;;10.65;6.20;;;;;;;1.76;73.03;93744.19;4137816;28;20488;-63
2023/01/27 07:41:05;;;;;;;12.98;6.25;;;;;;;1.86;72.68;93750.22;4143369;28;20539;-64
2023/01/27 07:43:06;;;;;;;10.82;6.70;;;;;;;1.78;71.97;93753.44;4125300;28;20050;-64
2023/01/27 07:45:08;;;;;;;11.98;7.07;;;;;;;1.81;72.58;93758.38;4145975;28;20057;-62
2023/01/27 07:47:10;;;;;;;11.60;6.80;;;;;;;1.71;73.11;93748.94;4130080;28;20105;-62
2023/01/27 07:49:12;;;;;;;12.50;6.65;;;;;;;1.74;72.96;93746.94;4140965;28;20107;-63
2023/01/27 07:51:14;;;;;;;13.48;6.90;;;;;;;1.83;72.73;93750.50;4138416;28;20054;-61
2023/01/27 07:53:15;;;;;;;16.70;8.70;;;;;;;1.59;72.85;93746.44;4142991;28;20045;-64
2023/01/27 07:55:17;;;;;;;11.23;7.20;;;;;;;1.68;73.18;93751.75;4144272;28;20493;-62
2023/01/27 07:57:19;;;;;;;11.45;6.57;;;;;;;1.80;73.09;93748.97;4133586;28;20101;-66
2023/01/27 07:59:20;;;;;;;14.65;7.75;;;;;;;1.84;72.63;93752.13;4143091;28;20085;-66
2023/01/27 08:01:22;;;;;;;11.27;6.18;;;;;;;1.88;72.04;93753.50;4141492;28;20046;-65
2023/01/27 08:03:26;;;;;;;11.73;6.60;;;;;;;1.91;71.93;93750.66;4131404;28;20085;-64
2023/01/27 08:05:28;;;;;;;14.32;7.05;;;;;;;2.01;71.77;93745.53;4137603;28;20033;-64
2023/01/27 08:07:30;;;;;;;13.85;7.70;;;;;;;2.08;71.61;93743.25;4132912;28;20381;-66
2023/01/27 08:09:31;;;;;;;13.73;7.10;;;;;;;1.59;71.42;93746.44;4146310;28;20520;-62
2023/01/27 08:11:33;;;;;;;11.57;6.75;;;;;;;1.57;72.51;93743.19;4146436;28;20054;-65
2023/01/27 08:13:35;;;;;;;9.38;6.03;;;;;;;1.16;73.13;93742.25;4138548;28;20061;-64
2023/01/27 08:15:37;;;;;;;12.18;7.45;;;;;;;0.95;74.17;93744.81;4142237;28;20129;-65
2023/01/27 08:17:39;;;;;;;12.43;7.53;;;;;;;0.70;75.07;93740.81;4146567;28;20057;-65
2023/01/27 08:19:40;;;;;;;29.55;16.35;;;;;;;0.60;75.29;93756.22;4147363;28;20524;-64
2023/01/27 08:21:42;;;;;;;30.17;16.98;;;;;;;0.41;76.63;93750.88;4146540;28;20061;-66
2023/01/27 08:23:44;;;;;;;26.35;14.93;;;;;;;0.39;76.48;93756.16;4146708;28;20141;-65
2023/01/27 08:25:53;;;;;;;27.52;16.38;;;;;;;0.46;76.86;93748.75;4147044;28;20092;-66
2023/01/27 08:27:55;;;;;;;26.38;16.27;;;;;;;0.61;77.33;93759.59;4146376;28;20528;-65
2023/01/27 08:29:57;;;;;;;22.63;15.23;;;;;;;0.58;76.75;93764.97;4146280;28;20054;-65
2023/01/27 08:31:58;;;;;;;14.68;10.77;;;;;;;0.39;76.43;93768.22;4129216;28;20050;-64
2023/01/27 08:34:00;;;;;;;22.85;14.20;;;;;;;0.52;77.37;93763.72;4146635;28;20050;-65
2023/01/27 08:36:08;;;;;;;21.83;12.63;;;;;;;0.75;77.18;93761.91;4146747;28;20041;-65
2023/01/27 08:38:14;;;;;;;15.45;10.15;;;;;;;0.97;76.54;93763.56;4146738;28;20416;-65
2023/01/27 08:40:16;;;;;;;19.83;11.73;;;;;;;1.05;75.51;93764.69;4129340;28;20062;-65
2023/01/27 08:42:18;;;;;;;26.23;14.75;;;;;;;0.74;75.29;93760.25;4145391;28;20061;-65
2023/01/27 08:44:20;;;;;;;27.33;13.70;;;;;;;0.72;75.69;93769.88;4146364;28;20057;-65
2023/01/27 08:46:22;;;;;;;15.75;10.27;;;;;;;0.77;76.23;93770.31;4146076;28;20038;-63
2023/01/27 08:48:23;;;;;;;13.88;8.75;;;;;;;0.50;74.93;93769.94;4145354;28;20108;-65
2023/01/27 08:50:25;;;;;;;19.63;11.05;;;;;;;0.45;75.71;93772.06;4145035;28;20137;-62
2023/01/27 08:52:29;;;;;;;18.83;11.43;;;;;;;0.19;76.28;93768.03;4145142;28;20128;-65
2023/01/27 08:54:31;;;;;;;18.20;12.32;;;;;;;0.39;76.49;93760.50;4144928;28;20478;-64
2023/01/27 08:56:33;;;;;;;19.48;13.05;;;;;;;0.55;76.20;93763.47;4144129;28;20054;-64
2023/01/27 08:58:35;;;;;;;19.38;10.82;;;;;;;0.45;76.06;93765.13;4142953;28;20575;-65
2023/01/27 09:00:36;;;;;;;15.65;9.80;;;;;;;0.42;76.62;93767.16;4146533;28;20057;-64
2023/01/27 09:02:38;;;;;;;16.40;10.40;;;;;;;0.49;76.49;93768.28;4133372;28;20607;-65
2023/01/27 09:04:43;;;;;;;19.48;11.93;;;;;;;0.40;76.73;93775.81;4146468;28;20496;-64
2023/01/27 09:06:47;;;;;;;19.58;12.85;;;;;;;0.57;76.37;93766.75;4146184;28;20476;-65
2023/01/27 09:09:07;;;;;;;17.52;10.73;;;;;;;0.75;75.98;93761.91;4145612;28;20054;-64
2023/01/27 09:11:15;;;;;;;14.93;9.43;;;;;;;0.98;75.13;93757.44;4145937;28;20081;-66
2023/01/27 09:13:17;;;;;;;17.67;10.70;;;;;;;1.05;74.77;93755.19;4145965;28;20046;-64
2023/01/27 09:15:18;;;;;;;14.13;8.60;;;;;;;1.10;74.09;93755.66;4145923;28;20073;-64
2023/01/27 09:17:20;;;;;;;11.88;7.05;;;;;;;1.13;73.96;93757.97;4146533;28;20057;-65
2023/01/27 09:19:22;;;;;;;11.25;6.78;;;;;;;1.16;73.66;93762.06;4146220;28;20500;-64
2023/01/27 09:21:24;;;;;;;10.43;6.93;;;;;;;1.29;73.86;93770.47;4145622;28;20423;-64
2023/01/27 09:23:26;;;;;;;10.60;7.15;;;;;;;0.85;74.51;93761.97;4145747;28;20052;-63
2023/01/27 09:25:27;;;;;;;12.32;7.05;;;;;;;0.31;76.26;93762.84;4146390;28;20050;-64
2023/01/27 09:27:29;;;;;;;8.18;6.05;;;;;;;0.20;76.67;93759.34;4144891;28;20045;-63
2023/01/27 09:29:40;;;;;;;7.95;5.90;;;;;;;-0.04;77.71;93754.34;4145430;28;20427;-65
2023/01/27 09:31:41;;;;;;;14.88;7.75;;;;;;;-0.01;78.87;93751.53;4145998;28;20046;-64
2023/01/27 09:33:43;;;;;;;11.48;7.03;;;;;;;0.01;78.75;93742.88;4146022;28;20132;-71
2023/01/27 09:35:48;;;;;;;9.10;6.55;;;;;;;-0.12;79.47;93748.16;4144887;28;20050;-66
2023/01/27 09:37:54;;;;;;;14.40;9.00;;;;;;;-0.06;80.11;93743.34;4134746;28;20046;-66
2023/01/27 09:39:58;;;;;;;16.65;9.80;;;;;;;-0.08;79.44;93736.69;4128386;28;20448;-65
2023/01/27 09:42:12;;;;;;;15.82;9.77;;;;;;;-0.25;80.58;93735.41;4140392;28;20413;-65
2023/01/27 09:44:17;;;;;;;;;;;;;;;0.05;80.96;93741.69;4134914;28;20073;-64
2023/01/27 09:46:40;;;;;;;15.48;8.95;;;;;;;0.20;79.73;93740.50;4146338;28;19921;-65
2023/01/27 09:49:16;;;;;;;14.63;9.10;;;;;;;0.54;79.79;93728.34;4143968;28;20058;-63
2023/01/27 09:51:21;;;;;;;13.25;7.85;;;;;;;0.77;78.25;93726.47;4122328;28;20059;-64
2023/01/27 09:53:34;;;;;;;10.00;6.22;;;;;;;0.90;77.00;93721.16;4127910;28;20054;-66
2023/01/27 09:55:45;;;;;;;8.23;5.70;;;;;;;1.04;76.55;93714.88;4146011;28;20142;-64
2023/01/27 09:57:53;;;;;;;13.77;5.75;;;;;;;1.09;76.36;93714.50;4147599;28;20321;-65
2023/01/27 10:00:07;;;;;;;11.25;5.55;;;;;;;1.11;75.30;93705.69;4148437;28;20504;-65
2023/01/27 10:02:29;;;;;;;12.43;6.00;;;;;;;1.17;75.58;93707.75;4149350;28;20580;-66
2023/01/27 10:05:02;;;;;;;12.05;6.70;;;;;;;1.08;76.15;93702.56;4138204;28;20475;-64
2023/01/27 10:07:41;;;;;;;13.23;7.40;;;;;;;0.72;76.69;93702.03;4148966;28;20084;-66
2023/01/27 10:09:52;;;;;;;14.35;7.90;;;;;;;0.68;78.14;93711.75;4141220;28;20481;-65
2023/01/27 10:12:11;;;;;;;13.93;7.53;;;;;;;0.53;78.12;93702.69;4141553;28;20112;-65
2023/01/27 10:14:37;;;;;;;12.70;6.82;;;;;;;0.64;78.23;93700.06;4138223;28;20180;-65